Time;durP1;ratioP1;P1;durP2;ratioP2;P2;SDS_P1;SDS_P2;PMS_P1;PMS_P2;Temp;Humidity;BMP_temperature;BMP_pressure;BME280_temperature;BME280_humidity;BME280_pressure;Samples;Min_cycle;Max_cycle;Signal;HPM_P1;HPM_P2
2022/12/20 00:00:41;;;;;;;4.00;2.43;;;;;;;9.73;87.65;101225.41;5265248;28;20036;-77
2022/12/20 00:03:13;;;;;;;5.38;2.33;;;;;;;9.75;87.29;101235.81;5264001;28;20112;-77
2022/12/20 00:05:44;;;;;;;3.70;2.37;;;;;;;9.77;87.51;101237.53;5263518;28;20135;-79
2022/12/20 00:08:16;;;;;;;4.07;2.50;;;;;;;9.76;87.30;101229.75;5264441;28;20079;-80
2022/12/20 00:10:48;;;;;;;7.77;2.80;;;;;;;9.77;87.34;101229.75;5264502;28;20029;-76
2022/12/20 00:13:19;;;;;;;7.83;2.80;;;;;;;9.80;87.05;101241.88;5263179;28;20033;-76
2022/12/20 00:16:12;;;;;;;5.90;2.33;;;;;;;9.83;86.79;101231.44;5262832;28;20025;-79
2022/12/20 00:18:44;;;;;;;5.38;2.40;;;;;;;9.82;87.07;101233.19;5265030;28;20087;-76
2022/12/20 00:21:15;;;;;;;4.97;2.57;;;;;;;9.85;86.91;101216.66;5264267;28;20032;-77
2022/12/20 00:23:47;;;;;;;5.97;3.00;;;;;;;9.95;86.14;101225.31;5264477;28;20120;-77
2022/12/20 00:26:21;;;;;;;5.03;2.80;;;;;;;9.96;86.17;101221.84;5264308;28;20037;-78
2022/12/20 00:28:53;;;;;;;5.85;2.67;;;;;;;9.97;86.02;101216.66;5264820;28;20116;-78
2022/12/20 00:31:27;;;;;;;4.77;2.70;;;;;;;9.96;85.91;101209.69;5264273;28;20527;-78
2022/12/20 00:34:00;;;;;;;5.85;2.65;;;;;;;10.07;85.37;101212.28;5264257;28;20785;-79
2022/12/20 00:36:32;;;;;;;5.00;2.47;;;;;;;10.09;85.31;101210.50;5263982;28;20048;-79
2022/12/20 00:39:03;;;;;;;6.13;2.40;;;;;;;10.09;85.08;101213.13;5264346;28;20476;-77
2022/12/20 00:41:35;;;;;;;7.63;2.53;;;;;;;10.12;84.83;101204.44;5263308;28;20044;-77
2022/12/20 00:44:06;;;;;;;8.77;2.73;;;;;;;10.15;84.92;101197.47;5264022;28;20029;-77
2022/12/20 00:46:37;;;;;;;6.53;2.70;;;;;;;10.14;85.01;101200.97;5263921;28;20048;-78
2022/12/20 00:49:09;;;;;;;6.03;2.67;;;;;;;10.10;84.95;101173.19;5245498;28;20087;-78
2022/12/20 00:51:40;;;;;;;4.10;2.60;;;;;;;10.19;84.84;101195.72;5263937;28;20048;-77
2022/12/20 00:54:11;;;;;;;6.00;3.23;;;;;;;10.23;84.49;101187.88;5264396;28;20029;-78
2022/12/20 00:56:43;;;;;;;5.87;2.80;;;;;;;10.32;84.07;101199.13;5263634;28;20033;-77
2022/12/20 00:59:14;;;;;;;6.20;2.60;;;;;;;10.35;84.47;101199.16;5263609;28;20037;-77
2022/12/20 01:01:46;;;;;;;6.23;3.17;;;;;;;10.18;87.35;101191.41;5263679;28;20111;-77
2022/12/20 01:04:17;;;;;;;6.90;3.57;;;;;;;10.06;88.17;101197.50;5263501;28;20036;-77
2022/12/20 01:06:49;;;;;;;7.17;3.10;;;;;;;9.91;90.45;101188.00;5263463;28;20484;-77
2022/12/20 01:09:20;;;;;;;6.27;3.00;;;;;;;9.84;93.09;101192.38;5263391;28;20029;-77
2022/12/20 01:11:51;;;;;;;10.27;3.10;;;;;;;9.54;96.89;101200.28;5263444;28;20029;-76
2022/12/20 01:14:23;;;;;;;7.53;3.70;;;;;;;9.41;97.91;101200.28;5263631;28;20033;-77
2022/12/20 01:16:54;;;;;;;8.53;3.90;;;;;;;9.30;98.57;101209.84;5263249;28;20071;-77
2022/12/20 01:19:25;;;;;;;11.73;4.20;;;;;;;9.23;99.58;101208.97;5263492;28;20079;-77
2022/12/20 01:21:57;;;;;;;10.33;4.03;;;;;;;9.29;100.00;101200.31;5263524;28;20037;-76
2022/12/20 01:24:29;;;;;;;10.17;4.67;;;;;;;9.24;100.00;101202.91;5262298;28;20037;-77
2022/12/20 01:27:01;;;;;;;;;;;;;;;9.24;100.00;101200.31;5263200;28;20036;-77
2022/12/20 01:29:32;;;;;;;13.70;4.65;;;;;;;9.04;100.00;101205.50;5263336;28;19912;-76
2022/12/20 01:32:04;;;;;;;14.53;3.93;;;;;;;9.01;100.00;101197.69;5263204;28;20029;-77
2022/12/20 01:34:35;;;;;;;10.83;4.60;;;;;;;8.94;100.00;101208.97;5262987;28;20104;-77
2022/12/20 01:37:06;;;;;;;7.63;4.43;;;;;;;8.91;100.00;101198.56;5262611;28;20044;-77
2022/12/20 01:39:38;;;;;;;8.90;3.57;;;;;;;8.83;100.00;101177.75;5262981;28;20051;-78
2022/12/20 01:42:13;;;;;;;11.30;4.93;;;;;;;8.77;100.00;101172.56;5262979;28;20032;-76
2022/12/20 01:44:45;;;;;;;8.45;4.35;;;;;;;8.80;100.00;101176.91;5262655;28;20026;-76
2022/12/20 01:47:16;;;;;;;9.00;4.63;;;;;;;8.75;100.00;101176.91;5263389;28;20055;-76
2022/12/20 01:49:51;;;;;;;11.83;5.13;;;;;;;8.74;100.00;101178.63;5262987;28;20079;-75
2022/12/20 01:52:42;;;;;;;16.38;5.25;;;;;;;8.69;100.00;101175.13;5262671;28;20033;-75
2022/12/20 01:55:25;;;;;;;9.18;4.95;;;;;;;8.68;100.00;101144.84;5262753;28;20029;-74
2022/12/20 01:58:06;;;;;;;10.55;4.78;;;;;;;8.67;100.00;101150.03;5263045;28;20029;-76
2022/12/20 02:00:38;;;;;;;10.00;5.15;;;;;;;8.68;100.00;101142.25;5262771;28;20116;-76
2022/12/20 02:03:13;;;;;;;12.50;5.20;;;;;;;8.66;100.00;101149.19;5263046;28;20119;-76
2022/12/20 02:05:45;;;;;;;13.38;5.32;;;;;;;8.70;100.00;101150.91;5263086;28;20444;-76
2022/12/20 02:08:19;;;;;;;11.27;4.68;;;;;;;8.74;100.00;101155.25;5265177;28;20033;-76
2022/12/20 02:11:21;;;;;;;8.75;4.13;;;;;;;8.66;100.00;101151.78;5265400;28;20033;-76
2022/12/20 02:13:58;;;;;;;15.90;4.63;;;;;;;8.67;100.00;101134.44;5264688;28;20029;-77
2022/12/20 02:16:41;;;;;;;9.45;3.92;;;;;;;8.67;100.00;101132.69;5265293;28;20025;-76
2022/12/20 02:19:48;;;;;;;9.13;4.50;;;;;;;8.61;100.00;101126.63;5268181;28;20029;-76
2022/12/20 02:22:37;;;;;;;7.40;3.28;;;;;;;8.60;100.00;101115.38;5215892;28;20045;-76
2022/12/20 02:25:45;;;;;;;6.28;3.80;;;;;;;8.54;100.00;101112.78;5268884;28;20353;-76
2022/12/20 02:28:32;;;;;;;5.85;3.50;;;;;;;8.55;100.00;101109.31;5264751;28;20029;-76
2022/12/20 02:31:10;;;;;;;6.43;3.20;;;;;;;8.53;100.00;101118.81;5263204;28;20033;-77
2022/12/20 02:33:46;;;;;;;6.10;3.38;;;;;;;8.48;100.00;101128.34;5261624;28;20167;-75
2022/12/20 02:36:18;;;;;;;5.70;3.47;;;;;;;8.49;100.00;101117.09;5266831;28;20061;-77
2022/12/20 02:38:50;;;;;;;6.90;3.60;;;;;;;8.46;100.00;101098.91;5266241;28;20075;-76
2022/12/20 02:41:47;;;;;;;6.50;3.87;;;;;;;8.49;100.00;101109.31;5266481;28;20032;-76
2022/12/20 02:47:25;;;;;;;8.15;3.10;;;;;;;8.53;100.00;101104.13;5266737;28;20095;-76
2022/12/20 02:49:57;;;;;;;4.80;3.00;;;;;;;8.53;100.00;101111.03;5266274;28;20087;-76
2022/12/20 02:52:30;;;;;;;4.10;2.77;;;;;;;8.58;100.00;101099.78;5266120;28;20052;-76
2022/12/20 02:55:03;;;;;;;4.50;3.40;;;;;;;8.60;100.00;101086.78;5266044;28;20387;-76
2022/12/20 02:58:22;;;;;;;5.32;2.65;;;;;;;8.64;100.00;101096.31;5266055;28;20033;-77
2022/12/20 03:00:56;;;;;;;4.00;2.63;;;;;;;8.69;100.00;101102.38;5202086;28;20130;-77
2022/12/20 03:03:28;;;;;;;4.80;2.38;;;;;;;8.70;100.00;101096.31;5201685;28;20124;-76
2022/12/20 03:05:59;;;;;;;5.27;2.50;;;;;;;8.72;100.00;101091.97;5242555;28;20194;-76
2022/12/20 03:08:31;;;;;;;3.67;2.60;;;;;;;8.82;100.00;101097.19;5266473;28;20109;-76
2022/12/20 03:11:02;;;;;;;3.80;2.47;;;;;;;8.90;100.00;101105.84;5266087;28;20029;-76
2022/12/20 03:13:33;;;;;;;4.20;2.60;;;;;;;8.99;100.00;101100.63;5265757;28;20033;-76
2022/12/20 03:16:06;;;;;;;7.60;2.43;;;;;;;9.06;100.00;101114.50;5265363;28;20025;-75
2022/12/20 03:18:37;;;;;;;6.05;3.00;;;;;;;9.07;100.00;101103.22;5265753;28;20127;-76
2022/12/20 03:21:09;;;;;;;4.73;2.33;;;;;;;9.11;100.00;101099.75;5265640;28;20044;-76
2022/12/20 03:23:40;;;;;;;4.90;2.60;;;;;;;9.09;100.00;101093.69;5265562;28;20062;-77
2022/12/20 03:26:11;;;;;;;3.00;2.33;;;;;;;9.15;100.00;101090.22;5266130;28;20044;-77
2022/12/20 03:28:43;;;;;;;3.03;2.13;;;;;;;9.30;100.00;101100.56;5264066;28;20037;-77
2022/12/20 03:31:14;;;;;;;3.67;2.30;;;;;;;9.51;100.00;101091.84;5263780;28;20112;-75
2022/12/20 03:33:46;;;;;;;4.20;2.17;;;;;;;9.53;100.00;101081.41;5265204;28;20025;-75
2022/12/20 03:36:22;;;;;;;3.75;2.22;;;;;;;9.59;100.00;101079.66;5265458;28;20028;-77
2022/12/20 03:38:54;;;;;;;3.60;2.05;;;;;;;9.66;100.00;101083.13;5265816;28;20057;-79
2022/12/20 03:41:25;;;;;;;3.22;1.90;;;;;;;9.75;100.00;101090.88;5265544;28;20029;-77
2022/12/20 03:43:57;;;;;;;4.23;2.37;;;;;;;9.78;100.00;101096.06;5265747;28;20043;-78
2022/12/20 03:46:28;;;;;;;5.80;2.63;;;;;;;9.87;100.00;101103.00;5264638;28;20025;-77
2022/12/20 03:48:59;;;;;;;5.47;2.50;;;;;;;9.90;99.57;101102.97;5265198;28;20060;-78
2022/12/20 03:51:31;;;;;;;7.83;2.90;;;;;;;9.98;98.85;101108.13;5264603;28;20033;-78
2022/12/20 03:54:02;;;;;;;4.00;2.27;;;;;;;10.02;98.49;101100.28;5263971;28;20033;-79
2022/12/20 03:56:34;;;;;;;3.63;2.23;;;;;;;10.11;97.90;101102.00;5265083;28;20040;-78
2022/12/20 03:59:05;;;;;;;3.33;2.17;;;;;;;10.14;97.70;101091.56;5265099;28;20464;-76
2022/12/20 04:01:37;;;;;;;6.23;2.50;;;;;;;10.21;96.99;101093.22;5264817;28;20036;-77
2022/12/20 04:04:11;;;;;;;4.93;2.23;;;;;;;10.21;97.25;101089.78;5264723;28;20025;-78
2022/12/20 04:06:42;;;;;;;2.90;1.92;;;;;;;10.20;96.97;101081.06;5264718;28;20718;-77
2022/12/20 04:09:14;;;;;;;6.20;2.57;;;;;;;10.29;96.32;101090.59;5264520;28;20033;-76
2022/12/20 04:11:46;;;;;;;6.45;2.42;;;;;;;10.27;96.56;101096.66;5264646;28;20383;-78
2022/12/20 04:14:17;;;;;;;4.63;2.70;;;;;;;10.34;95.96;101093.19;5264592;28;20021;-77
2022/12/20 04:16:48;;;;;;;5.10;2.07;;;;;;;10.33;95.53;101087.09;5264428;28;20037;-77
2022/12/20 04:19:20;;;;;;;4.23;2.30;;;;;;;10.36;95.33;101087.06;5263140;28;20120;-76
2022/12/20 04:21:51;;;;;;;8.43;2.80;;;;;;;10.35;95.46;101084.47;5264217;28;20033;-77
2022/12/20 04:24:23;;;;;;;4.43;2.40;;;;;;;10.35;95.54;101079.28;5264717;28;20120;-76
2022/12/20 04:26:54;;;;;;;3.80;1.87;;;;;;;10.43;94.86;101080.06;5264868;28;20029;-75
2022/12/20 04:29:26;;;;;;;7.23;2.37;;;;;;;10.43;94.65;101072.25;5264253;28;20051;-76
2022/12/20 04:31:57;;;;;;;5.27;2.50;;;;;;;10.48;94.26;101080.03;5263465;28;20045;-76
2022/12/20 04:34:28;;;;;;;3.33;2.07;;;;;;;10.47;94.19;101083.56;5264185;28;20045;-76
2022/12/20 04:37:00;;;;;;;3.70;2.40;;;;;;;10.55;93.76;101079.13;5264050;28;20078;-75
2022/12/20 04:39:31;;;;;;;3.23;2.03;;;;;;;10.53;93.80;101076.53;5264016;28;20033;-76
2022/12/20 04:42:02;;;;;;;7.57;2.27;;;;;;;10.44;94.75;101074.00;5264267;28;20060;-76
2022/12/20 04:44:34;;;;;;;3.23;2.00;;;;;;;10.46;94.36;101077.44;5264010;28;20033;-76
2022/12/20 04:47:05;;;;;;;5.53;2.57;;;;;;;10.49;94.31;101080.03;5264030;28;20041;-78
2022/12/20 04:49:36;;;;;;;4.73;2.30;;;;;;;10.50;94.38;101078.31;5264347;28;20599;-77
2022/12/20 04:54:58;;;;;;;5.88;2.45;;;;;;;10.50;94.79;101068.75;5264335;28;20535;-77
2022/12/20 04:57:29;;;;;;;4.37;2.30;;;;;;;10.54;94.29;101069.56;5262632;28;20124;-76
2022/12/20 05:00:00;;;;;;;8.03;3.13;;;;;;;10.54;94.31;101080.84;5262522;28;20029;-77
2022/12/20 05:02:32;;;;;;;5.03;2.60;;;;;;;10.55;94.33;101053.06;5263720;28;20025;-77
2022/12/20 05:05:04;;;;;;;6.33;2.50;;;;;;;10.55;94.59;101066.97;5264130;28;20037;-78
2022/12/20 05:07:35;;;;;;;7.63;3.57;;;;;;;10.60;94.58;101066.06;5264153;28;20040;-78
2022/12/20 05:10:07;;;;;;;3.33;2.27;;;;;;;10.60;94.90;101060.84;5264085;28;20108;-78
2022/12/20 05:12:38;;;;;;;4.20;2.40;;;;;;;10.60;94.90;101051.28;5263765;28;20060;-77
2022/12/20 05:15:11;;;;;;;5.67;2.47;;;;;;;10.57;95.11;101054.78;5261953;28;20305;-77
2022/12/20 05:17:42;;;;;;;5.80;2.35;;;;;;;10.54;95.49;101049.56;5263408;28;20041;-78
2022/12/20 05:20:14;;;;;;;9.07;3.00;;;;;;;10.54;95.58;101040.91;5263300;28;20036;-77
2022/12/20 05:28:27;;;;;;;4.15;2.20;;;;;;;10.54;95.97;101025.25;5263154;28;20041;-75
2022/12/20 05:30:59;;;;;;;5.33;2.57;;;;;;;10.51;95.83;101023.56;5263095;28;20137;-75
2022/12/20 05:33:31;;;;;;;5.80;2.10;;;;;;;10.49;95.76;101020.09;5263613;28;20068;-74
2022/12/20 05:36:02;;;;;;;4.60;2.17;;;;;;;10.48;96.33;101026.19;5262933;28;20040;-76
2022/12/20 05:38:34;;;;;;;4.27;2.40;;;;;;;10.47;96.13;101027.06;5263499;28;20033;-75
2022/12/20 05:41:05;;;;;;;5.67;2.40;;;;;;;10.47;96.42;101026.22;5263348;28;20029;-76
2022/12/20 05:43:37;;;;;;;7.57;2.40;;;;;;;10.42;96.66;101012.31;5263691;28;20033;-74
2022/12/20 05:46:09;;;;;;;4.23;2.57;;;;;;;10.40;96.37;101008.00;5261919;28;20045;-75
2022/12/20 05:48:41;;;;;;;6.30;2.15;;;;;;;10.47;95.96;101015.78;5262264;28;20028;-74
2022/12/20 05:51:12;;;;;;;5.00;2.40;;;;;;;10.44;96.03;101011.44;5262841;28;20132;-75
2022/12/20 05:53:43;;;;;;;4.07;2.10;;;;;;;10.43;96.11;101017.53;5262937;28;20060;-75
2022/12/20 05:56:15;;;;;;;2.77;2.00;;;;;;;10.42;96.17;101001.91;5262755;28;20468;-76
2022/12/20 05:58:46;;;;;;;4.27;2.03;;;;;;;10.38;96.64;101006.28;5262675;28;20025;-75
2022/12/20 06:01:17;;;;;;;4.37;2.07;;;;;;;10.33;96.59;100987.22;5262682;28;20025;-75
2022/12/20 06:03:49;;;;;;;6.77;1.93;;;;;;;10.33;96.41;100990.69;5263253;28;20033;-73
2022/12/20 06:06:21;;;;;;;8.68;2.40;;;;;;;10.34;95.36;100975.94;5262584;28;20029;-74
2022/12/20 06:08:52;;;;;;;3.60;1.87;;;;;;;10.31;96.08;100971.56;5261827;28;20480;-73
2022/12/20 06:11:24;;;;;;;4.90;2.73;;;;;;;10.32;95.73;100955.09;5262775;28;20509;-74
2022/12/20 06:13:55;;;;;;;6.13;2.27;;;;;;;10.34;95.15;100955.09;5262395;28;20112;-74
2022/12/20 06:16:27;;;;;;;5.47;2.37;;;;;;;10.31;94.66;100955.09;5262631;28;20036;-74
2022/12/20 06:18:59;;;;;;;3.30;2.20;;;;;;;10.30;94.69;100959.41;5262286;28;20029;-74
2022/12/20 06:21:30;;;;;;;3.83;1.90;;;;;;;10.28;94.32;100952.50;5263085;28;20452;-74
2022/12/20 06:24:02;;;;;;;6.10;2.10;;;;;;;10.23;94.61;100966.41;5262604;28;20082;-74
2022/12/20 06:26:36;;;;;;;4.73;2.07;;;;;;;10.19;94.13;100951.72;5262006;28;20052;-74
2022/12/20 06:29:12;;;;;;;3.80;2.22;;;;;;;10.23;93.71;100963.81;5245078;28;20045;-75
2022/12/20 06:31:44;;;;;;;7.95;2.80;;;;;;;10.23;93.60;100969.03;5262549;28;20033;-75
2022/12/20 06:34:15;;;;;;;6.73;2.20;;;;;;;10.27;93.23;100979.41;5262518;28;20087;-77
2022/12/20 06:36:46;;;;;;;6.77;2.17;;;;;;;10.21;93.49;100967.31;5262274;28;20032;-74
2022/12/20 06:39:18;;;;;;;3.90;1.90;;;;;;;10.20;92.70;100974.25;5262194;28;20037;-73
2022/12/20 06:41:49;;;;;;;7.10;2.30;;;;;;;10.25;92.30;100969.00;5262528;28;20040;-73
2022/12/20 06:44:20;;;;;;;3.73;1.93;;;;;;;10.30;92.04;100966.38;5261885;28;20175;-74
2022/12/20 06:46:52;;;;;;;3.30;2.30;;;;;;;10.34;91.26;100963.75;5244733;28;20456;-73
2022/12/20 06:49:23;;;;;;;4.07;2.17;;;;;;;10.34;91.01;100970.72;5262215;28;20052;-74
2022/12/20 06:51:55;;;;;;;5.03;1.83;;;;;;;10.37;90.13;100961.13;5262320;28;20475;-73
2022/12/20 06:54:26;;;;;;;9.73;3.20;;;;;;;10.40;89.55;100960.25;5262669;28;20080;-74
2022/12/20 06:56:57;;;;;;;3.33;1.90;;;;;;;10.38;90.11;100969.81;5261103;28;20103;-74
2022/12/20 06:59:29;;;;;;;4.33;1.93;;;;;;;10.39;89.74;100963.72;5262705;28;20029;-74
2022/12/20 07:02:00;;;;;;;3.73;2.10;;;;;;;10.45;89.24;100976.69;5262060;28;20033;-73
2022/12/20 07:04:31;;;;;;;2.80;1.73;;;;;;;10.48;88.54;100966.25;5262027;28;20048;-73
2022/12/20 07:07:03;;;;;;;2.80;1.80;;;;;;;10.50;88.57;100977.53;5261982;28;20048;-75
2022/12/20 07:09:36;;;;;;;2.70;1.87;;;;;;;10.53;88.29;100977.50;5260782;28;20040;-75
2022/12/20 07:12:09;;;;;;;3.00;1.75;;;;;;;10.54;87.88;100971.38;5261511;28;20029;-74
2022/12/20 07:14:40;;;;;;;5.35;2.22;;;;;;;10.58;87.48;100972.25;5261736;28;20029;-74
2022/12/20 07:17:12;;;;;;;5.57;2.43;;;;;;;10.62;87.09;100971.31;5261111;28;20033;-75
2022/12/20 07:19:43;;;;;;;3.30;1.93;;;;;;;10.63;87.06;100980.03;5261833;28;20017;-75
2022/12/20 07:22:14;;;;;;;4.67;1.70;;;;;;;10.64;86.84;100982.63;5264277;28;20033;-74
2022/12/20 07:24:46;;;;;;;4.57;2.03;;;;;;;10.67;85.99;100972.13;5265513;28;20108;-74
2022/12/20 07:27:18;;;;;;;3.75;1.80;;;;;;;10.69;86.13;100977.31;5265251;28;20044;-75
2022/12/20 07:29:50;;;;;;;3.07;1.73;;;;;;;10.70;86.16;100972.09;5265447;28;20029;-74
2022/12/20 07:32:21;;;;;;;4.57;1.75;;;;;;;10.68;85.77;100965.19;5265410;28;20059;-74
2022/12/20 07:34:53;;;;;;;4.20;2.33;;;;;;;10.69;86.04;100979.94;5265235;28;20037;-75
2022/12/20 07:37:24;;;;;;;4.53;2.07;;;;;;;10.69;85.92;100983.44;5265516;28;20437;-76
2022/12/20 07:39:55;;;;;;;3.90;2.33;;;;;;;10.68;86.26;100986.91;5264962;28;20025;-75
2022/12/20 07:42:27;;;;;;;5.67;2.20;;;;;;;10.69;85.68;100985.16;5265733;28;20025;-75
2022/12/20 07:44:58;;;;;;;3.50;2.00;;;;;;;10.72;85.24;100985.13;5265108;28;20037;-74
2022/12/20 07:47:29;;;;;;;4.50;1.90;;;;;;;10.69;85.40;100979.94;5263728;28;20055;-75
2022/12/20 07:50:02;;;;;;;4.77;2.37;;;;;;;10.74;85.32;100994.66;5264908;28;20464;-74
2022/12/20 07:52:34;;;;;;;3.83;2.22;;;;;;;10.74;85.03;100991.19;5265015;28;20411;-75
2022/12/20 07:55:07;;;;;;;2.40;1.85;;;;;;;10.71;85.67;100999.06;5265057;28;20033;-76
2022/12/20 07:57:50;;;;;;;3.58;1.77;;;;;;;10.67;85.96;100990.38;5263547;28;20029;-75
2022/12/20 08:00:22;;;;;;;3.97;1.75;;;;;;;10.58;87.75;101003.53;5264209;28;20036;-75
2022/12/20 08:03:18;;;;;;;4.15;1.88;;;;;;;10.46;88.79;101004.47;5264560;28;20029;-73
2022/12/20 08:05:54;;;;;;;3.75;1.85;;;;;;;10.27;90.94;100993.34;5264444;28;20033;-74
2022/12/20 08:08:25;;;;;;;5.25;2.75;;;;;;;10.19;92.96;101003.81;5264684;28;20031;-74
2022/12/20 08:10:58;;;;;;;3.27;1.97;;;;;;;9.91;95.35;100992.72;5264305;28;20033;-75
2022/12/20 08:13:31;;;;;;;3.88;1.92;;;;;;;9.76;96.17;100990.22;5264099;28;20090;-75
2022/12/20 08:16:03;;;;;;;3.60;2.08;;;;;;;9.67;99.31;100985.91;5264053;28;20483;-74
2022/12/20 08:18:34;;;;;;;3.33;2.10;;;;;;;9.68;99.04;100985.06;5264512;28;20032;-74
2022/12/20 08:21:06;;;;;;;4.87;2.07;;;;;;;9.60;100.00;100989.44;5264077;28;20480;-74
2022/12/20 08:23:37;;;;;;;4.90;2.00;;;;;;;9.47;100.00;100980.84;5264974;28;20032;-75
2022/12/20 08:26:09;;;;;;;5.43;2.60;;;;;;;9.52;100.00;100997.28;5264553;28;20509;-73
2022/12/20 08:28:40;;;;;;;6.77;2.57;;;;;;;9.50;100.00;100983.44;5264091;28;20025;-74
2022/12/20 08:31:12;;;;;;;7.57;2.40;;;;;;;9.44;100.00;100989.50;5263948;28;20033;-74
2022/12/20 08:33:44;;;;;;;3.50;2.00;;;;;;;9.39;100.00;100988.69;5263638;28;20116;-74
2022/12/20 08:36:15;;;;;;;7.23;3.07;;;;;;;9.37;100.00;100980.03;5263223;28;20460;-74
2022/12/20 08:38:47;;;;;;;5.80;2.63;;;;;;;9.36;100.00;100991.28;5263894;28;20033;-74
2022/12/20 08:41:18;;;;;;;4.30;2.40;;;;;;;9.29;100.00;100990.47;5262472;28;20036;-74
2022/12/20 08:43:49;;;;;;;8.47;2.73;;;;;;;9.28;100.00;100982.66;5264026;28;20033;-73
2022/12/20 08:46:21;;;;;;;7.93;2.63;;;;;;;9.26;100.00;100974.84;5263913;28;20065;-75
2022/12/20 08:48:52;;;;;;;4.80;2.23;;;;;;;9.23;100.00;100974.88;5263402;28;20086;-74
2022/12/20 08:51:24;;;;;;;16.17;2.80;;;;;;;9.19;100.00;100978.34;5263608;28;20379;-74
2022/12/20 08:53:55;;;;;;;8.47;2.70;;;;;;;9.15;100.00;100971.44;5263771;28;20484;-73
2022/12/20 08:56:27;;;;;;;16.40;4.17;;;;;;;9.09;100.00;100974.91;5263468;28;20029;-74
2022/12/20 08:58:58;;;;;;;9.23;3.17;;;;;;;9.02;100.00;100968.00;5263332;28;20037;-74
2022/12/20 09:01:32;;;;;;;6.67;2.83;;;;;;;9.01;100.00;100963.69;5263382;28;20033;-74
2022/12/20 09:04:03;;;;;;;6.03;3.00;;;;;;;9.01;100.00;100966.28;5263109;28;20120;-74
2022/12/20 09:06:35;;;;;;;7.30;3.30;;;;;;;9.00;100.00;100961.97;5263540;28;20119;-74
2022/12/20 09:09:06;;;;;;;4.73;3.00;;;;;;;8.97;100.00;100955.88;5263139;28;20025;-74
2022/12/20 09:11:38;;;;;;;5.87;3.07;;;;;;;8.96;100.00;100949.84;5263143;28;20033;-74
2022/12/20 09:14:09;;;;;;;6.40;2.73;;;;;;;8.98;100.00;100947.22;5263570;28;20484;-74
2022/12/20 09:16:41;;;;;;;5.90;3.33;;;;;;;8.97;100.00;100948.97;5262984;28;20025;-73
2022/12/20 09:19:13;;;;;;;7.27;2.90;;;;;;;8.97;100.00;100954.16;5262943;28;20025;-74
2022/12/20 09:21:44;;;;;;;9.68;4.20;;;;;;;9.00;100.00;100950.69;5263272;28;20171;-73
2022/12/20 09:24:16;;;;;;;5.77;3.20;;;;;;;9.05;100.00;100956.75;5262498;28;20131;-74
2022/12/20 09:26:47;;;;;;;9.23;3.40;;;;;;;9.11;100.00;100962.78;5262963;28;20025;-73
2022/12/20 09:29:19;;;;;;;7.40;3.27;;;;;;;9.16;100.00;100964.50;5262559;28;20091;-74
2022/12/20 09:31:50;;;;;;;7.63;3.67;;;;;;;9.17;100.00;100953.22;5262574;28;20071;-73
2022/12/20 09:34:21;;;;;;;8.27;3.03;;;;;;;9.21;100.00;100966.22;5262777;28;20083;-74
2022/12/20 09:36:53;;;;;;;5.47;2.80;;;;;;;9.22;100.00;100956.66;5262204;28;20029;-74
2022/12/20 09:39:25;;;;;;;5.68;2.85;;;;;;;9.25;100.00;100960.09;5262616;28;20101;-74
2022/12/20 09:41:58;;;;;;;4.77;2.53;;;;;;;9.29;100.00;100960.97;5262777;28;20470;-73
2022/12/20 09:44:37;;;;;;;4.70;2.80;;;;;;;9.27;100.00;100955.78;5262131;28;20052;-74
2022/12/20 09:47:20;;;;;;;7.38;2.65;;;;;;;9.25;100.00;100956.66;5262473;28;20158;-74
2022/12/20 09:49:55;;;;;;;8.07;3.25;;;;;;;9.27;100.00;100954.91;5262842;28;20045;-74
2022/12/20 09:53:02;;;;;;;6.18;2.55;;;;;;;9.28;100.00;100980.06;5262256;28;20025;-75
2022/12/20 09:55:42;;;;;;;6.45;2.20;;;;;;;9.27;100.00;100960.09;5258986;28;20571;-75
2022/12/20 09:58:26;;;;;;;4.95;2.50;;;;;;;9.25;100.00;100957.50;5262356;28;20048;-75
2022/12/20 10:00:58;;;;;;;3.78;2.22;;;;;;;9.33;100.00;100959.22;5262601;28;20474;-77
2022/12/20 10:03:34;;;;;;;5.93;2.67;;;;;;;9.34;100.00;100954.03;5262595;28;20048;-76
2022/12/20 10:06:24;;;;;;;5.57;2.70;;;;;;;9.35;100.00;100950.53;5260657;28;20067;-75
2022/12/20 10:09:02;;;;;;;6.38;2.70;;;;;;;9.38;100.00;100947.06;5262287;28;20437;-74
2022/12/20 10:12:14;;;;;;;4.20;2.67;;;;;;;9.45;100.00;100944.41;5261958;28;20126;-75
2022/12/20 10:15:07;;;;;;;6.03;3.25;;;;;;;9.60;100.00;100948.66;5253512;28;20377;-74
2022/12/20 10:17:38;;;;;;;5.30;2.70;;;;;;;9.67;100.00;100950.34;5262281;28;20437;-74
2022/12/20 10:20:43;;;;;;;7.20;2.53;;;;;;;9.75;100.00;100952.91;5262371;28;20040;-75
2022/12/20 10:23:36;;;;;;;6.82;2.70;;;;;;;9.83;100.00;100951.09;5262083;28;20086;-74
2022/12/20 10:26:10;;;;;;;6.67;2.80;;;;;;;9.93;100.00;100949.28;5262097;28;20036;-75
2022/12/20 10:28:41;;;;;;;5.15;2.40;;;;;;;9.96;100.00;100951.03;5262013;28;20259;-75
2022/12/20 10:31:14;;;;;;;12.17;2.80;;;;;;;9.99;100.00;100951.00;5260746;28;20029;-74
2022/12/20 10:33:46;;;;;;;4.30;2.28;;;;;;;9.97;100.00;100951.00;5261941;28;20029;-75
2022/12/20 10:36:20;;;;;;;4.07;2.43;;;;;;;9.94;100.00;100961.44;5262059;28;20083;-75
2022/12/20 10:38:55;;;;;;;7.78;2.92;;;;;;;9.89;100.00;100955.41;5261779;28;20017;-74
2022/12/20 10:41:29;;;;;;;6.07;3.05;;;;;;;9.84;100.00;100952.84;5261809;28;20452;-74
2022/12/20 10:44:15;;;;;;;3.85;2.53;;;;;;;9.74;100.00;100951.19;5261890;28;20397;-74
2022/12/20 10:46:52;;;;;;;7.53;3.08;;;;;;;9.70;100.00;100944.25;5262591;28;20048;-74
2022/12/20 10:49:35;;;;;;;6.03;2.75;;;;;;;9.70;100.00;100939.06;5262444;28;20379;-74
2022/12/20 10:52:07;;;;;;;8.13;3.05;;;;;;;9.60;100.00;100929.59;5261930;28;20068;-75
2022/12/20 10:54:41;;;;;;;9.47;3.20;;;;;;;9.58;100.00;100945.22;5261685;28;20041;-75
2022/12/20 10:57:12;;;;;;;5.55;3.17;;;;;;;9.54;100.00;100924.41;5265444;28;20472;-75
2022/12/20 10:59:54;;;;;;;8.33;3.83;;;;;;;9.53;100.00;100935.69;5265739;28;20072;-75
2022/12/20 11:02:38;;;;;;;8.23;3.35;;;;;;;9.47;100.00;100921.84;5266005;28;20063;-75
2022/12/20 11:05:09;;;;;;;7.30;3.88;;;;;;;9.44;100.00;100921.88;5265936;28;20025;-75
2022/12/20 11:08:26;;;;;;;6.63;3.33;;;;;;;9.36;100.00;100915.84;5265688;28;20379;-74
2022/12/20 11:11:18;;;;;;;6.68;3.30;;;;;;;9.38;100.00;100921.88;5251996;28;20041;-75
2022/12/20 11:13:51;;;;;;;10.75;4.30;;;;;;;9.42;100.00;100922.75;5266131;28;20124;-75
2022/12/20 11:16:38;;;;;;;8.68;4.30;;;;;;;9.40;100.00;100920.16;5263999;28;20040;-75
2022/12/20 11:19:41;;;;;;;7.95;4.47;;;;;;;9.36;100.00;100915.84;5265499;28;20028;-74
2022/12/20 11:22:15;;;;;;;10.15;4.70;;;;;;;9.38;100.00;100916.69;5265379;28;20037;-74
2022/12/20 11:24:58;;;;;;;9.35;5.15;;;;;;;9.37;100.00;100920.19;5265647;28;20028;-74
2022/12/20 11:27:40;;;;;;;8.75;5.20;;;;;;;9.36;100.00;100915.84;5265546;28;20044;-74
2022/12/20 11:30:49;;;;;;;10.93;5.55;;;;;;;9.34;100.00;100914.09;5265900;28;20029;-74
2022/12/20 11:33:54;;;;;;;8.35;4.90;;;;;;;9.37;100.00;100911.50;5265291;28;20036;-75
2022/12/20 11:36:41;;;;;;;9.82;5.13;;;;;;;9.39;100.00;100912.38;5265680;28;20064;-74
2022/12/20 11:39:17;;;;;;;9.07;4.90;;;;;;;9.38;100.00;100908.03;5265185;28;20032;-75
2022/12/20 11:41:58;;;;;;;12.25;5.70;;;;;;;9.37;100.00;100896.75;5265598;28;20029;-76
2022/12/20 11:44:48;;;;;;;11.82;5.45;;;;;;;9.31;100.00;100902.00;5264926;28;20025;-74
2022/12/20 11:47:28;;;;;;;9.27;4.97;;;;;;;9.33;100.00;100905.44;5264776;28;20149;-75
2022/12/20 11:49:59;;;;;;;9.15;5.47;;;;;;;9.27;100.00;100892.47;5264986;28;20052;-73
2022/12/20 11:52:54;;;;;;;12.07;5.33;;;;;;;9.29;100.00;100889.00;5264780;28;20294;-74
2022/12/20 11:55:30;;;;;;;10.07;5.60;;;;;;;9.29;100.00;100883.81;5264948;28;20040;-75
2022/12/20 11:58:15;;;;;;;8.10;5.10;;;;;;;9.33;100.00;100891.59;5264933;28;20033;-73
2022/12/20 12:01:12;;;;;;;7.47;5.25;;;;;;;9.34;100.00;100888.97;5264721;28;20099;-74
2022/12/20 12:04:22;;;;;;;10.55;5.70;;;;;;;9.38;100.00;100885.47;5257587;28;20041;-74
2022/12/20 12:07:00;;;;;;;8.10;5.25;;;;;;;9.40;100.00;100878.53;5250549;28;20037;-74
2022/12/20 12:09:52;;;;;;;9.77;5.68;;;;;;;9.40;100.00;100880.25;5264805;28;20036;-75
2022/12/20 12:12:47;;;;;;;9.95;5.43;;;;;;;9.49;100.00;100875.84;5264337;28;20115;-75